Terminal Aerodrome Forecast
Issued by NWS

Current Version | Previous Version | Text Only | Print | Product List | Glossary On
Versions: 1 2 3 4 5 6 7 8 9 10 11 12 13 14 15 16 17 18 19 20 21 22 23 24 25 26 27 28 29 30 31 32 33 34 35 36 37 38 39 40 41 42
000
FTAK31 PAFA 241138
TAFAQT
TAF
PAQT 241138Z 2412/2512 09007KT 3/4SM BR OVC003
      TEMPO 2412/2415 1/4SM FG
     FM241800 10006KT 6SM BR VCSH OVC015
     FM242000 10008KT P6SM -RA SCT015 BKN050
     FM251000 11007KT 4SM BR VCSH SCT007 BKN015 OVC050=

USA.gov is the U.S. government's official web portal to all federal, state and local government web resources and services.